sensor_id;sensor_type;location;lat;lon;timestamp;P1;durP1;ratioP1;P2;durP2;ratioP2
76589;SDS011;65471;55.908;37.880;2023-11-19T00:01:41;46.25;;;18.20;;
76589;SDS011;65471;55.908;37.880;2023-11-19T00:04:08;55.08;;;20.55;;
76589;SDS011;65471;55.908;37.880;2023-11-19T00:06:35;56.47;;;20.42;;
76589;SDS011;65471;55.908;37.880;2023-11-19T00:09:02;49.33;;;18.55;;
76589;SDS011;65471;55.908;37.880;2023-11-19T00:11:30;47.23;;;19.50;;
76589;SDS011;65471;55.908;37.880;2023-11-19T00:13:57;57.45;;;20.98;;
76589;SDS011;65471;55.908;37.880;2023-11-19T00:16:24;60.28;;;19.42;;
76589;SDS011;65471;55.908;37.880;2023-11-19T00:18:51;53.13;;;20.60;;
76589;SDS011;65471;55.908;37.880;2023-11-19T00:21:18;54.88;;;21.08;;
76589;SDS011;65471;55.908;37.880;2023-11-19T00:23:46;55.78;;;21.67;;
76589;SDS011;65471;55.908;37.880;2023-11-19T00:26:13;65.60;;;22.52;;
76589;SDS011;65471;55.908;37.880;2023-11-19T00:28:41;61.55;;;22.50;;
76589;SDS011;65471;55.908;37.880;2023-11-19T00:31:09;71.07;;;22.52;;
76589;SDS011;65471;55.908;37.880;2023-11-19T00:33:37;65.57;;;22.73;;
76589;SDS011;65471;55.908;37.880;2023-11-19T00:36:15;49.63;;;19.52;;
76589;SDS011;65471;55.908;37.880;2023-11-19T00:38:42;57.08;;;18.92;;
76589;SDS011;65471;55.908;37.880;2023-11-19T00:41:09;55.55;;;21.10;;
76589;SDS011;65471;55.908;37.880;2023-11-19T00:43:37;50.53;;;20.27;;
76589;SDS011;65471;55.908;37.880;2023-11-19T00:46:06;50.17;;;18.70;;
76589;SDS011;65471;55.908;37.880;2023-11-19T00:48:34;56.72;;;20.75;;
76589;SDS011;65471;55.908;37.880;2023-11-19T00:51:01;63.17;;;21.90;;
76589;SDS011;65471;55.908;37.880;2023-11-19T00:53:28;77.72;;;22.52;;
76589;SDS011;65471;55.908;37.880;2023-11-19T00:55:54;65.55;;;19.42;;
76589;SDS011;65471;55.908;37.880;2023-11-19T00:58:21;70.85;;;22.38;;
76589;SDS011;65471;55.908;37.880;2023-11-19T01:00:48;89.15;;;26.70;;
76589;SDS011;65471;55.908;37.880;2023-11-19T01:03:15;52.45;;;21.83;;
76589;SDS011;65471;55.908;37.880;2023-11-19T01:05:42;64.82;;;21.95;;
76589;SDS011;65471;55.908;37.880;2023-11-19T01:08:11;75.70;;;23.40;;
76589;SDS011;65471;55.908;37.880;2023-11-19T01:10:38;47.50;;;19.88;;
76589;SDS011;65471;55.908;37.880;2023-11-19T01:13:05;46.47;;;19.55;;
76589;SDS011;65471;55.908;37.880;2023-11-19T01:15:35;50.30;;;20.02;;
76589;SDS011;65471;55.908;37.880;2023-11-19T01:18:02;58.83;;;23.02;;
76589;SDS011;65471;55.908;37.880;2023-11-19T01:20:32;72.30;;;23.25;;
76589;SDS011;65471;55.908;37.880;2023-11-19T01:23:00;56.30;;;20.27;;
76589;SDS011;65471;55.908;37.880;2023-11-19T01:25:27;66.68;;;22.77;;
76589;SDS011;65471;55.908;37.880;2023-11-19T01:27:54;69.50;;;22.80;;
76589;SDS011;65471;55.908;37.880;2023-11-19T01:30:24;61.95;;;20.48;;
76589;SDS011;65471;55.908;37.880;2023-11-19T01:32:52;53.58;;;20.45;;
76589;SDS011;65471;55.908;37.880;2023-11-19T01:35:19;58.35;;;19.27;;
76589;SDS011;65471;55.908;37.880;2023-11-19T01:37:46;49.08;;;18.85;;
76589;SDS011;65471;55.908;37.880;2023-11-19T01:40:13;60.33;;;22.95;;
76589;SDS011;65471;55.908;37.880;2023-11-19T01:42:40;63.03;;;21.55;;
76589;SDS011;65471;55.908;37.880;2023-11-19T01:45:08;63.72;;;20.85;;
76589;SDS011;65471;55.908;37.880;2023-11-19T01:47:36;63.47;;;21.52;;
76589;SDS011;65471;55.908;37.880;2023-11-19T01:50:05;51.10;;;21.92;;
76589;SDS011;65471;55.908;37.880;2023-11-19T01:52:34;66.90;;;22.10;;
76589;SDS011;65471;55.908;37.880;2023-11-19T01:55:06;52.42;;;20.88;;
76589;SDS011;65471;55.908;37.880;2023-11-19T01:57:35;64.72;;;22.92;;
76589;SDS011;65471;55.908;37.880;2023-11-19T02:00:07;48.03;;;18.92;;
76589;SDS011;65471;55.908;37.880;2023-11-19T02:02:40;53.03;;;20.25;;
76589;SDS011;65471;55.908;37.880;2023-11-19T02:05:08;80.88;;;23.20;;
76589;SDS011;65471;55.908;37.880;2023-11-19T02:07:37;58.10;;;22.50;;
76589;SDS011;65471;55.908;37.880;2023-11-19T02:10:04;64.15;;;22.23;;
76589;SDS011;65471;55.908;37.880;2023-11-19T02:12:32;53.75;;;22.63;;
76589;SDS011;65471;55.908;37.880;2023-11-19T02:15:03;58.00;;;21.92;;
76589;SDS011;65471;55.908;37.880;2023-11-19T02:17:33;58.33;;;23.23;;
76589;SDS011;65471;55.908;37.880;2023-11-19T02:20:01;59.13;;;21.65;;
76589;SDS011;65471;55.908;37.880;2023-11-19T02:22:35;63.00;;;21.88;;
76589;SDS011;65471;55.908;37.880;2023-11-19T02:25:04;57.30;;;21.50;;
76589;SDS011;65471;55.908;37.880;2023-11-19T02:30:22;63.28;;;21.90;;
76589;SDS011;65471;55.908;37.880;2023-11-19T02:32:56;63.50;;;22.48;;
76589;SDS011;65471;55.908;37.880;2023-11-19T02:35:24;60.95;;;22.10;;
76589;SDS011;65471;55.908;37.880;2023-11-19T02:37:55;63.53;;;22.13;;
76589;SDS011;65471;55.908;37.880;2023-11-19T02:40:22;62.97;;;20.30;;
76589;SDS011;65471;55.908;37.880;2023-11-19T02:42:51;59.08;;;22.27;;
76589;SDS011;65471;55.908;37.880;2023-11-19T02:45:19;56.65;;;20.42;;
76589;SDS011;65471;55.908;37.880;2023-11-19T02:47:46;55.53;;;20.25;;
76589;SDS011;65471;55.908;37.880;2023-11-19T02:50:13;49.30;;;22.27;;
76589;SDS011;65471;55.908;37.880;2023-11-19T02:52:43;72.07;;;23.77;;
76589;SDS011;65471;55.908;37.880;2023-11-19T02:55:12;69.68;;;21.45;;
76589;SDS011;65471;55.908;37.880;2023-11-19T02:57:39;69.80;;;21.98;;
76589;SDS011;65471;55.908;37.880;2023-11-19T03:00:15;62.67;;;22.75;;
76589;SDS011;65471;55.908;37.880;2023-11-19T03:02:44;59.33;;;21.20;;
76589;SDS011;65471;55.908;37.880;2023-11-19T03:05:21;51.83;;;21.45;;
76589;SDS011;65471;55.908;37.880;2023-11-19T03:07:47;57.80;;;22.60;;
76589;SDS011;65471;55.908;37.880;2023-11-19T03:10:14;71.90;;;22.90;;
76589;SDS011;65471;55.908;37.880;2023-11-19T03:12:42;73.40;;;24.55;;
76589;SDS011;65471;55.908;37.880;2023-11-19T03:15:10;77.82;;;23.92;;
76589;SDS011;65471;55.908;37.880;2023-11-19T03:17:41;63.72;;;23.00;;
76589;SDS011;65471;55.908;37.880;2023-11-19T03:20:10;59.60;;;22.50;;
76589;SDS011;65471;55.908;37.880;2023-11-19T03:22:41;75.95;;;24.33;;
76589;SDS011;65471;55.908;37.880;2023-11-19T03:25:08;51.15;;;21.98;;
76589;SDS011;65471;55.908;37.880;2023-11-19T03:27:36;67.50;;;23.40;;
76589;SDS011;65471;55.908;37.880;2023-11-19T03:30:03;74.47;;;23.35;;
76589;SDS011;65471;55.908;37.880;2023-11-19T03:32:31;82.73;;;23.33;;
76589;SDS011;65471;55.908;37.880;2023-11-19T03:34:59;55.20;;;20.55;;
76589;SDS011;65471;55.908;37.880;2023-11-19T03:37:26;59.75;;;22.48;;
76589;SDS011;65471;55.908;37.880;2023-11-19T03:39:54;48.90;;;22.55;;
76589;SDS011;65471;55.908;37.880;2023-11-19T03:42:21;71.60;;;21.23;;
76589;SDS011;65471;55.908;37.880;2023-11-19T03:44:48;53.45;;;22.40;;
76589;SDS011;65471;55.908;37.880;2023-11-19T03:47:16;61.55;;;24.83;;
76589;SDS011;65471;55.908;37.880;2023-11-19T03:49:46;68.60;;;23.02;;
76589;SDS011;65471;55.908;37.880;2023-11-19T03:52:15;69.95;;;23.13;;
76589;SDS011;65471;55.908;37.880;2023-11-19T03:54:46;68.22;;;22.23;;
76589;SDS011;65471;55.908;37.880;2023-11-19T03:57:13;66.45;;;23.20;;
76589;SDS011;65471;55.908;37.880;2023-11-19T03:59:41;64.70;;;22.27;;
76589;SDS011;65471;55.908;37.880;2023-11-19T04:02:08;56.03;;;22.70;;
76589;SDS011;65471;55.908;37.880;2023-11-19T04:04:35;66.22;;;21.83;;
76589;SDS011;65471;55.908;37.880;2023-11-19T04:07:02;71.00;;;23.55;;
76589;SDS011;65471;55.908;37.880;2023-11-19T04:09:29;64.70;;;23.60;;
76589;SDS011;65471;55.908;37.880;2023-11-19T04:11:56;78.35;;;24.65;;
76589;SDS011;65471;55.908;37.880;2023-11-19T04:14:24;52.30;;;22.75;;
76589;SDS011;65471;55.908;37.880;2023-11-19T04:16:51;65.18;;;23.92;;
76589;SDS011;65471;55.908;37.880;2023-11-19T04:19:18;74.82;;;24.27;;
76589;SDS011;65471;55.908;37.880;2023-11-19T04:21:46;68.30;;;23.75;;
76589;SDS011;65471;55.908;37.880;2023-11-19T04:24:13;67.45;;;25.17;;
76589;SDS011;65471;55.908;37.880;2023-11-19T04:26:41;60.50;;;22.83;;
76589;SDS011;65471;55.908;37.880;2023-11-19T04:29:12;61.13;;;23.38;;
76589;SDS011;65471;55.908;37.880;2023-11-19T04:31:39;73.05;;;25.40;;
76589;SDS011;65471;55.908;37.880;2023-11-19T04:34:07;75.05;;;23.80;;
76589;SDS011;65471;55.908;37.880;2023-11-19T04:36:34;55.90;;;22.70;;
76589;SDS011;65471;55.908;37.880;2023-11-19T04:39:01;70.47;;;23.75;;
76589;SDS011;65471;55.908;37.880;2023-11-19T04:41:28;61.38;;;23.60;;
76589;SDS011;65471;55.908;37.880;2023-11-19T04:43:55;61.88;;;24.52;;
76589;SDS011;65471;55.908;37.880;2023-11-19T04:46:22;63.63;;;24.25;;
76589;SDS011;65471;55.908;37.880;2023-11-19T04:48:50;66.83;;;25.23;;
76589;SDS011;65471;55.908;37.880;2023-11-19T04:51:18;79.30;;;22.67;;
76589;SDS011;65471;55.908;37.880;2023-11-19T04:53:45;75.82;;;24.60;;
76589;SDS011;65471;55.908;37.880;2023-11-19T04:56:12;76.00;;;25.20;;
76589;SDS011;65471;55.908;37.880;2023-11-19T04:58:39;72.23;;;24.50;;
76589;SDS011;65471;55.908;37.880;2023-11-19T05:01:12;61.78;;;24.15;;
76589;SDS011;65471;55.908;37.880;2023-11-19T05:03:42;50.47;;;22.83;;
76589;SDS011;65471;55.908;37.880;2023-11-19T05:06:09;64.65;;;24.13;;
76589;SDS011;65471;55.908;37.880;2023-11-19T05:08:36;62.63;;;24.45;;
76589;SDS011;65471;55.908;37.880;2023-11-19T05:11:03;54.08;;;22.13;;
76589;SDS011;65471;55.908;37.880;2023-11-19T05:13:32;55.97;;;22.35;;
76589;SDS011;65471;55.908;37.880;2023-11-19T05:15:59;67.72;;;24.63;;
76589;SDS011;65471;55.908;37.880;2023-11-19T05:18:26;62.15;;;23.17;;
76589;SDS011;65471;55.908;37.880;2023-11-19T05:20:53;57.17;;;22.92;;
76589;SDS011;65471;55.908;37.880;2023-11-19T05:23:20;58.13;;;23.42;;
76589;SDS011;65471;55.908;37.880;2023-11-19T05:25:48;59.33;;;21.13;;
76589;SDS011;65471;55.908;37.880;2023-11-19T05:28:14;65.40;;;24.02;;
76589;SDS011;65471;55.908;37.880;2023-11-19T05:30:41;59.33;;;24.88;;
76589;SDS011;65471;55.908;37.880;2023-11-19T05:33:08;59.90;;;22.45;;
76589;SDS011;65471;55.908;37.880;2023-11-19T05:35:35;57.17;;;21.50;;
76589;SDS011;65471;55.908;37.880;2023-11-19T05:38:02;48.47;;;19.60;;
76589;SDS011;65471;55.908;37.880;2023-11-19T05:40:30;48.80;;;20.65;;
76589;SDS011;65471;55.908;37.880;2023-11-19T05:42:56;60.63;;;19.58;;
76589;SDS011;65471;55.908;37.880;2023-11-19T05:45:23;57.00;;;21.00;;
76589;SDS011;65471;55.908;37.880;2023-11-19T05:47:51;53.55;;;21.05;;
76589;SDS011;65471;55.908;37.880;2023-11-19T05:50:19;61.38;;;22.02;;
76589;SDS011;65471;55.908;37.880;2023-11-19T05:52:46;47.80;;;20.17;;
76589;SDS011;65471;55.908;37.880;2023-11-19T05:55:13;43.25;;;19.70;;
76589;SDS011;65471;55.908;37.880;2023-11-19T05:57:40;45.55;;;19.88;;
76589;SDS011;65471;55.908;37.880;2023-11-19T06:00:10;50.40;;;19.83;;
76589;SDS011;65471;55.908;37.880;2023-11-19T06:02:39;54.63;;;19.20;;
76589;SDS011;65471;55.908;37.880;2023-11-19T06:05:06;57.10;;;22.10;;
76589;SDS011;65471;55.908;37.880;2023-11-19T06:07:34;52.92;;;22.00;;
76589;SDS011;65471;55.908;37.880;2023-11-19T06:10:02;46.90;;;20.00;;
76589;SDS011;65471;55.908;37.880;2023-11-19T06:12:33;43.78;;;21.90;;
76589;SDS011;65471;55.908;37.880;2023-11-19T06:15:04;51.03;;;20.85;;
76589;SDS011;65471;55.908;37.880;2023-11-19T06:17:32;60.00;;;21.95;;
76589;SDS011;65471;55.908;37.880;2023-11-19T06:20:00;48.80;;;20.17;;
76589;SDS011;65471;55.908;37.880;2023-11-19T06:22:27;62.42;;;23.38;;
76589;SDS011;65471;55.908;37.880;2023-11-19T06:24:55;53.72;;;22.25;;
76589;SDS011;65471;55.908;37.880;2023-11-19T06:27:22;57.85;;;21.50;;
76589;SDS011;65471;55.908;37.880;2023-11-19T06:29:49;48.10;;;20.10;;
76589;SDS011;65471;55.908;37.880;2023-11-19T06:32:16;56.67;;;24.67;;
76589;SDS011;65471;55.908;37.880;2023-11-19T06:34:43;60.63;;;24.27;;
76589;SDS011;65471;55.908;37.880;2023-11-19T06:37:10;55.67;;;23.58;;
76589;SDS011;65471;55.908;37.880;2023-11-19T06:39:37;50.83;;;24.02;;
76589;SDS011;65471;55.908;37.880;2023-11-19T06:42:04;49.10;;;22.50;;
76589;SDS011;65471;55.908;37.880;2023-11-19T06:44:31;49.33;;;22.40;;
76589;SDS011;65471;55.908;37.880;2023-11-19T06:46:58;46.47;;;21.60;;
76589;SDS011;65471;55.908;37.880;2023-11-19T06:49:25;65.80;;;22.42;;
76589;SDS011;65471;55.908;37.880;2023-11-19T06:51:52;55.72;;;21.30;;
76589;SDS011;65471;55.908;37.880;2023-11-19T06:54:19;43.90;;;20.52;;
76589;SDS011;65471;55.908;37.880;2023-11-19T06:56:46;50.40;;;17.52;;
76589;SDS011;65471;55.908;37.880;2023-11-19T06:59:14;51.15;;;18.30;;
76589;SDS011;65471;55.908;37.880;2023-11-19T07:01:41;44.38;;;18.70;;
76589;SDS011;65471;55.908;37.880;2023-11-19T07:04:13;47.33;;;17.73;;
76589;SDS011;65471;55.908;37.880;2023-11-19T07:06:40;40.95;;;18.33;;
76589;SDS011;65471;55.908;37.880;2023-11-19T07:09:08;38.67;;;16.88;;
76589;SDS011;65471;55.908;37.880;2023-11-19T07:11:39;40.55;;;15.25;;
76589;SDS011;65471;55.908;37.880;2023-11-19T07:14:07;38.85;;;17.15;;
76589;SDS011;65471;55.908;37.880;2023-11-19T07:16:35;37.10;;;15.95;;
76589;SDS011;65471;55.908;37.880;2023-11-19T07:19:05;48.17;;;17.15;;
76589;SDS011;65471;55.908;37.880;2023-11-19T07:21:33;42.58;;;16.85;;
76589;SDS011;65471;55.908;37.880;2023-11-19T07:24:00;31.73;;;14.40;;
76589;SDS011;65471;55.908;37.880;2023-11-19T07:26:28;47.55;;;17.60;;
76589;SDS011;65471;55.908;37.880;2023-11-19T07:28:55;46.00;;;17.17;;
76589;SDS011;65471;55.908;37.880;2023-11-19T07:31:23;32.80;;;15.30;;
76589;SDS011;65471;55.908;37.880;2023-11-19T07:33:50;33.92;;;14.25;;
76589;SDS011;65471;55.908;37.880;2023-11-19T07:36:17;30.48;;;15.18;;
76589;SDS011;65471;55.908;37.880;2023-11-19T07:38:45;34.33;;;14.65;;
76589;SDS011;65471;55.908;37.880;2023-11-19T07:41:12;31.00;;;11.52;;
76589;SDS011;65471;55.908;37.880;2023-11-19T07:43:41;34.85;;;16.17;;
76589;SDS011;65471;55.908;37.880;2023-11-19T07:46:11;33.25;;;16.10;;
76589;SDS011;65471;55.908;37.880;2023-11-19T07:51:07;52.72;;;13.82;;
76589;SDS011;65471;55.908;37.880;2023-11-19T07:53:34;40.88;;;16.48;;
76589;SDS011;65471;55.908;37.880;2023-11-19T07:56:04;33.95;;;14.88;;
76589;SDS011;65471;55.908;37.880;2023-11-19T07:58:32;23.80;;;12.30;;
76589;SDS011;65471;55.908;37.880;2023-11-19T08:00:59;30.40;;;14.88;;
76589;SDS011;65471;55.908;37.880;2023-11-19T08:03:26;32.08;;;14.63;;
76589;SDS011;65471;55.908;37.880;2023-11-19T08:05:55;30.40;;;15.15;;
76589;SDS011;65471;55.908;37.880;2023-11-19T08:08:23;47.35;;;16.08;;
76589;SDS011;65471;55.908;37.880;2023-11-19T08:10:51;46.40;;;17.05;;
76589;SDS011;65471;55.908;37.880;2023-11-19T08:13:18;45.95;;;17.42;;
76589;SDS011;65471;55.908;37.880;2023-11-19T08:18:14;32.08;;;15.80;;
76589;SDS011;65471;55.908;37.880;2023-11-19T08:20:41;43.97;;;18.05;;
76589;SDS011;65471;55.908;37.880;2023-11-19T08:23:09;31.55;;;17.45;;
76589;SDS011;65471;55.908;37.880;2023-11-19T08:25:36;34.88;;;18.08;;
76589;SDS011;65471;55.908;37.880;2023-11-19T08:28:03;40.45;;;18.38;;
76589;SDS011;65471;55.908;37.880;2023-11-19T08:30:30;41.72;;;19.00;;
76589;SDS011;65471;55.908;37.880;2023-11-19T08:32:57;40.88;;;18.80;;
76589;SDS011;65471;55.908;37.880;2023-11-19T08:35:25;45.60;;;18.93;;
76589;SDS011;65471;55.908;37.880;2023-11-19T08:37:52;44.45;;;18.80;;
76589;SDS011;65471;55.908;37.880;2023-11-19T08:40:20;55.60;;;18.90;;
76589;SDS011;65471;55.908;37.880;2023-11-19T08:42:46;37.15;;;16.58;;
76589;SDS011;65471;55.908;37.880;2023-11-19T08:45:13;35.13;;;15.88;;
76589;SDS011;65471;55.908;37.880;2023-11-19T08:47:40;30.52;;;15.70;;
76589;SDS011;65471;55.908;37.880;2023-11-19T08:50:07;28.67;;;14.57;;
76589;SDS011;65471;55.908;37.880;2023-11-19T08:52:35;38.83;;;16.63;;
76589;SDS011;65471;55.908;37.880;2023-11-19T08:55:02;40.80;;;17.25;;
76589;SDS011;65471;55.908;37.880;2023-11-19T08:57:29;38.60;;;16.45;;
76589;SDS011;65471;55.908;37.880;2023-11-19T08:59:56;39.70;;;16.67;;
76589;SDS011;65471;55.908;37.880;2023-11-19T09:02:23;36.17;;;16.83;;
76589;SDS011;65471;55.908;37.880;2023-11-19T09:04:51;33.80;;;15.63;;
76589;SDS011;65471;55.908;37.880;2023-11-19T09:07:20;30.52;;;15.85;;
76589;SDS011;65471;55.908;37.880;2023-11-19T09:09:48;14.70;;;6.77;;
76589;SDS011;65471;55.908;37.880;2023-11-19T09:12:14;27.27;;;14.50;;
76589;SDS011;65471;55.908;37.880;2023-11-19T09:14:42;33.13;;;15.68;;
76589;SDS011;65471;55.908;37.880;2023-11-19T09:17:09;28.20;;;14.23;;
76589;SDS011;65471;55.908;37.880;2023-11-19T09:19:37;38.45;;;15.27;;
76589;SDS011;65471;55.908;37.880;2023-11-19T09:22:04;39.17;;;13.80;;
76589;SDS011;65471;55.908;37.880;2023-11-19T09:24:31;31.10;;;13.73;;
76589;SDS011;65471;55.908;37.880;2023-11-19T09:26:57;23.60;;;11.75;;
76589;SDS011;65471;55.908;37.880;2023-11-19T09:29:24;23.92;;;12.27;;
76589;SDS011;65471;55.908;37.880;2023-11-19T09:31:51;21.92;;;11.45;;
76589;SDS011;65471;55.908;37.880;2023-11-19T09:34:18;26.95;;;12.18;;
76589;SDS011;65471;55.908;37.880;2023-11-19T09:36:45;25.83;;;13.27;;
76589;SDS011;65471;55.908;37.880;2023-11-19T09:39:12;37.22;;;13.88;;
76589;SDS011;65471;55.908;37.880;2023-11-19T09:41:41;25.35;;;13.52;;
76589;SDS011;65471;55.908;37.880;2023-11-19T09:44:09;30.33;;;11.93;;
76589;SDS011;65471;55.908;37.880;2023-11-19T09:46:36;24.77;;;12.45;;
76589;SDS011;65471;55.908;37.880;2023-11-19T09:49:03;26.13;;;11.95;;
76589;SDS011;65471;55.908;37.880;2023-11-19T09:51:38;27.65;;;12.48;;
76589;SDS011;65471;55.908;37.880;2023-11-19T09:54:05;21.98;;;11.60;;
76589;SDS011;65471;55.908;37.880;2023-11-19T09:56:33;23.75;;;9.75;;
76589;SDS011;65471;55.908;37.880;2023-11-19T09:59:03;10.55;;;8.60;;
76589;SDS011;65471;55.908;37.880;2023-11-19T10:01:30;23.95;;;10.23;;
76589;SDS011;65471;55.908;37.880;2023-11-19T10:03:58;18.33;;;10.15;;
76589;SDS011;65471;55.908;37.880;2023-11-19T10:06:27;25.67;;;11.70;;
76589;SDS011;65471;55.908;37.880;2023-11-19T10:08:54;20.50;;;11.98;;
76589;SDS011;65471;55.908;37.880;2023-11-19T10:11:22;19.33;;;11.57;;
76589;SDS011;65471;55.908;37.880;2023-11-19T10:13:49;23.10;;;12.40;;
76589;SDS011;65471;55.908;37.880;2023-11-19T10:16:17;19.73;;;11.60;;
76589;SDS011;65471;55.908;37.880;2023-11-19T10:18:48;26.73;;;12.15;;
76589;SDS011;65471;55.908;37.880;2023-11-19T10:21:18;24.63;;;12.32;;
76589;SDS011;65471;55.908;37.880;2023-11-19T10:23:49;25.73;;;12.00;;
76589;SDS011;65471;55.908;37.880;2023-11-19T10:26:18;26.27;;;11.80;;
76589;SDS011;65471;55.908;37.880;2023-11-19T10:28:46;28.33;;;11.13;;
76589;SDS011;65471;55.908;37.880;2023-11-19T10:31:17;22.80;;;8.90;;
76589;SDS011;65471;55.908;37.880;2023-11-19T10:33:45;18.38;;;11.02;;
76589;SDS011;65471;55.908;37.880;2023-11-19T10:36:14;24.30;;;12.43;;
76589;SDS011;65471;55.908;37.880;2023-11-19T10:38:41;22.42;;;12.52;;
76589;SDS011;65471;55.908;37.880;2023-11-19T10:41:28;16.80;;;12.00;;
76589;SDS011;65471;55.908;37.880;2023-11-19T10:43:57;23.73;;;13.75;;
76589;SDS011;65471;55.908;37.880;2023-11-19T10:46:39;27.08;;;13.70;;
76589;SDS011;65471;55.908;37.880;2023-11-19T10:49:08;21.38;;;11.45;;
76589;SDS011;65471;55.908;37.880;2023-11-19T10:51:35;30.70;;;14.63;;
76589;SDS011;65471;55.908;37.880;2023-11-19T10:54:03;29.55;;;13.95;;
76589;SDS011;65471;55.908;37.880;2023-11-19T10:56:34;33.17;;;14.35;;
76589;SDS011;65471;55.908;37.880;2023-11-19T10:59:02;23.60;;;13.20;;
76589;SDS011;65471;55.908;37.880;2023-11-19T11:01:48;35.55;;;14.35;;
76589;SDS011;65471;55.908;37.880;2023-11-19T11:04:19;25.17;;;13.55;;
76589;SDS011;65471;55.908;37.880;2023-11-19T11:06:51;25.40;;;12.65;;
76589;SDS011;65471;55.908;37.880;2023-11-19T11:09:18;27.02;;;13.40;;
76589;SDS011;65471;55.908;37.880;2023-11-19T11:11:46;33.50;;;14.43;;
76589;SDS011;65471;55.908;37.880;2023-11-19T11:14:14;26.73;;;12.60;;
76589;SDS011;65471;55.908;37.880;2023-11-19T11:16:45;24.55;;;13.05;;
76589;SDS011;65471;55.908;37.880;2023-11-19T11:19:13;31.83;;;15.27;;
76589;SDS011;65471;55.908;37.880;2023-11-19T11:21:41;31.70;;;14.90;;
76589;SDS011;65471;55.908;37.880;2023-11-19T11:35:41;30.52;;;13.35;;
76589;SDS011;65471;55.908;37.880;2023-11-19T11:38:10;26.40;;;13.18;;
76589;SDS011;65471;55.908;37.880;2023-11-19T11:40:40;25.58;;;13.40;;
76589;SDS011;65471;55.908;37.880;2023-11-19T11:49:01;26.25;;;13.13;;
76589;SDS011;65471;55.908;37.880;2023-11-19T12:02:12;21.10;;;11.50;;
76589;SDS011;65471;55.908;37.880;2023-11-19T12:04:41;22.05;;;12.40;;
76589;SDS011;65471;55.908;37.880;2023-11-19T12:07:08;24.08;;;13.55;;
76589;SDS011;65471;55.908;37.880;2023-11-19T12:09:40;16.85;;;9.63;;
76589;SDS011;65471;55.908;37.880;2023-11-19T12:20:00;24.23;;;11.60;;
76589;SDS011;65471;55.908;37.880;2023-11-19T12:22:29;29.98;;;12.52;;
76589;SDS011;65471;55.908;37.880;2023-11-19T12:24:56;27.30;;;12.23;;
76589;SDS011;65471;55.908;37.880;2023-11-19T12:27:23;18.73;;;12.55;;
76589;SDS011;65471;55.908;37.880;2023-11-19T12:29:50;29.63;;;10.95;;
76589;SDS011;65471;55.908;37.880;2023-11-19T12:32:17;50.88;;;12.57;;
76589;SDS011;65471;55.908;37.880;2023-11-19T12:34:45;26.30;;;11.48;;
76589;SDS011;65471;55.908;37.880;2023-11-19T12:37:12;28.02;;;11.82;;
76589;SDS011;65471;55.908;37.880;2023-11-19T12:39:39;23.38;;;11.70;;
76589;SDS011;65471;55.908;37.880;2023-11-19T12:42:07;27.13;;;11.27;;
76589;SDS011;65471;55.908;37.880;2023-11-19T12:44:34;36.65;;;12.77;;
76589;SDS011;65471;55.908;37.880;2023-11-19T12:47:02;17.77;;;10.75;;
76589;SDS011;65471;55.908;37.880;2023-11-19T12:49:30;28.23;;;12.02;;
76589;SDS011;65471;55.908;37.880;2023-11-19T12:51:57;37.85;;;11.73;;
76589;SDS011;65471;55.908;37.880;2023-11-19T12:54:31;24.98;;;12.05;;
76589;SDS011;65471;55.908;37.880;2023-11-19T12:56:59;29.33;;;12.80;;
76589;SDS011;65471;55.908;37.880;2023-11-19T12:59:26;20.20;;;12.00;;
76589;SDS011;65471;55.908;37.880;2023-11-19T13:01:54;34.15;;;13.52;;
76589;SDS011;65471;55.908;37.880;2023-11-19T13:04:23;22.35;;;11.30;;
76589;SDS011;65471;55.908;37.880;2023-11-19T13:06:54;25.17;;;12.70;;
76589;SDS011;65471;55.908;37.880;2023-11-19T13:09:24;36.95;;;12.32;;
76589;SDS011;65471;55.908;37.880;2023-11-19T13:11:54;23.15;;;12.18;;
76589;SDS011;65471;55.908;37.880;2023-11-19T13:14:22;20.27;;;11.65;;
76589;SDS011;65471;55.908;37.880;2023-11-19T13:16:50;20.63;;;11.32;;
76589;SDS011;65471;55.908;37.880;2023-11-19T13:19:17;16.35;;;10.88;;
76589;SDS011;65471;55.908;37.880;2023-11-19T13:24:15;21.75;;;10.63;;
76589;SDS011;65471;55.908;37.880;2023-11-19T13:26:42;15.98;;;10.75;;
76589;SDS011;65471;55.908;37.880;2023-11-19T13:29:09;39.40;;;11.93;;
76589;SDS011;65471;55.908;37.880;2023-11-19T13:31:37;19.05;;;11.38;;
76589;SDS011;65471;55.908;37.880;2023-11-19T13:34:05;37.50;;;12.77;;
76589;SDS011;65471;55.908;37.880;2023-11-19T13:36:34;23.75;;;11.93;;
76589;SDS011;65471;55.908;37.880;2023-11-19T13:39:01;36.45;;;12.75;;
76589;SDS011;65471;55.908;37.880;2023-11-19T13:41:29;27.10;;;12.50;;
76589;SDS011;65471;55.908;37.880;2023-11-19T13:43:56;34.05;;;11.68;;
76589;SDS011;65471;55.908;37.880;2023-11-19T13:46:23;17.85;;;11.45;;
76589;SDS011;65471;55.908;37.880;2023-11-19T13:48:50;20.67;;;12.68;;
76589;SDS011;65471;55.908;37.880;2023-11-19T13:51:17;25.60;;;11.93;;
76589;SDS011;65471;55.908;37.880;2023-11-19T13:53:44;38.28;;;11.95;;
76589;SDS011;65471;55.908;37.880;2023-11-19T13:56:14;26.63;;;12.13;;
76589;SDS011;65471;55.908;37.880;2023-11-19T13:58:41;29.95;;;12.40;;
76589;SDS011;65471;55.908;37.880;2023-11-19T14:01:08;25.52;;;12.43;;
76589;SDS011;65471;55.908;37.880;2023-11-19T14:03:35;26.48;;;11.40;;
76589;SDS011;65471;55.908;37.880;2023-11-19T14:06:02;35.20;;;12.48;;
76589;SDS011;65471;55.908;37.880;2023-11-19T14:08:30;21.95;;;11.45;;
76589;SDS011;65471;55.908;37.880;2023-11-19T14:10:57;28.70;;;11.55;;
76589;SDS011;65471;55.908;37.880;2023-11-19T14:13:24;31.13;;;11.82;;
76589;SDS011;65471;55.908;37.880;2023-11-19T14:15:51;22.27;;;11.73;;
76589;SDS011;65471;55.908;37.880;2023-11-19T14:18:19;28.65;;;11.80;;
76589;SDS011;65471;55.908;37.880;2023-11-19T14:20:46;36.72;;;11.75;;
76589;SDS011;65471;55.908;37.880;2023-11-19T14:23:13;29.23;;;11.52;;
76589;SDS011;65471;55.908;37.880;2023-11-19T14:25:40;17.63;;;10.43;;
76589;SDS011;65471;55.908;37.880;2023-11-19T14:28:07;20.48;;;11.07;;
76589;SDS011;65471;55.908;37.880;2023-11-19T14:30:34;21.73;;;11.55;;
76589;SDS011;65471;55.908;37.880;2023-11-19T14:33:02;31.95;;;11.65;;
76589;SDS011;65471;55.908;37.880;2023-11-19T14:35:30;24.90;;;11.57;;
76589;SDS011;65471;55.908;37.880;2023-11-19T14:40:26;23.70;;;11.30;;
76589;SDS011;65471;55.908;37.880;2023-11-19T14:42:56;28.17;;;11.70;;
76589;SDS011;65471;55.908;37.880;2023-11-19T14:45:23;21.85;;;11.32;;
76589;SDS011;65471;55.908;37.880;2023-11-19T14:47:50;36.33;;;13.25;;
76589;SDS011;65471;55.908;37.880;2023-11-19T14:50:17;28.30;;;11.70;;
76589;SDS011;65471;55.908;37.880;2023-11-19T14:52:44;27.83;;;12.45;;
76589;SDS011;65471;55.908;37.880;2023-11-19T14:55:11;50.85;;;12.27;;
76589;SDS011;65471;55.908;37.880;2023-11-19T14:57:38;20.58;;;11.60;;
76589;SDS011;65471;55.908;37.880;2023-11-19T15:00:06;30.90;;;13.43;;
76589;SDS011;65471;55.908;37.880;2023-11-19T15:02:40;27.70;;;12.02;;